Terminal Aerodrome Forecast
Issued by NWS Central Illinois

Home | Current Version | Previous Version | Text Only | Print | Product List | Glossary On
Versions: 1 2 3 4 5 6 7 8 9 10 11 12 13 14 15 16 17 18
031
FTUS43 KILX 032333
TAFPIA
TAF
KPIA 032333Z 0400/0424 27007KT P6SM SCT090
     FM040500 24008KT P6SM VCSH OVC070
      TEMPO 0405/0409 5SM -SHRA BR BKN050
     FM041000 30011KT P6SM SCT050
     FM041300 35012G19KT P6SM SKC
     FM041800 34015G23KT P6SM SCT050=

USA.gov is the U.S. government's official web portal to all federal, state and local government web resources and services.